sensor_id;sensor_type;location;lat;lon;timestamp;temperature;humidity
32698;DHT22;19087;51.062;3.754;2023-07-20T00:01:10;18.10;99.90
32698;DHT22;19087;51.062;3.754;2023-07-20T00:03:36;18.10;99.90
32698;DHT22;19087;51.062;3.754;2023-07-20T00:06:02;18.10;99.90
32698;DHT22;19087;51.062;3.754;2023-07-20T00:08:29;18.10;99.90
32698;DHT22;19087;51.062;3.754;2023-07-20T00:10:55;18.00;99.90
32698;DHT22;19087;51.062;3.754;2023-07-20T00:13:20;18.00;99.90
32698;DHT22;19087;51.062;3.754;2023-07-20T00:15:46;18.00;99.90
32698;DHT22;19087;51.062;3.754;2023-07-20T00:18:11;17.90;99.90
32698;DHT22;19087;51.062;3.754;2023-07-20T00:20:37;17.80;99.90
32698;DHT22;19087;51.062;3.754;2023-07-20T00:23:03;17.70;99.90
32698;DHT22;19087;51.062;3.754;2023-07-20T00:25:29;17.70;99.90
32698;DHT22;19087;51.062;3.754;2023-07-20T00:27:54;17.60;99.90
32698;DHT22;19087;51.062;3.754;2023-07-20T00:30:20;17.50;99.90
32698;DHT22;19087;51.062;3.754;2023-07-20T00:32:45;17.60;99.90
32698;DHT22;19087;51.062;3.754;2023-07-20T00:35:11;17.50;99.90
32698;DHT22;19087;51.062;3.754;2023-07-20T00:37:37;17.50;99.90
32698;DHT22;19087;51.062;3.754;2023-07-20T00:40:03;17.50;99.90
32698;DHT22;19087;51.062;3.754;2023-07-20T00:42:29;17.50;99.90
32698;DHT22;19087;51.062;3.754;2023-07-20T00:44:55;17.40;99.90
32698;DHT22;19087;51.062;3.754;2023-07-20T00:47:21;17.40;99.90
32698;DHT22;19087;51.062;3.754;2023-07-20T00:49:47;17.40;99.90
32698;DHT22;19087;51.062;3.754;2023-07-20T00:52:13;17.20;99.90
32698;DHT22;19087;51.062;3.754;2023-07-20T00:54:40;17.20;99.90
32698;DHT22;19087;51.062;3.754;2023-07-20T00:57:06;17.10;99.90
32698;DHT22;19087;51.062;3.754;2023-07-20T00:59:32;17.20;99.90
32698;DHT22;19087;51.062;3.754;2023-07-20T01:01:58;17.10;99.90
32698;DHT22;19087;51.062;3.754;2023-07-20T01:04:23;17.10;99.90
32698;DHT22;19087;51.062;3.754;2023-07-20T01:07:01;17.00;99.90
32698;DHT22;19087;51.062;3.754;2023-07-20T01:09:30;17.00;99.90
32698;DHT22;19087;51.062;3.754;2023-07-20T01:14:46;17.00;99.90
32698;DHT22;19087;51.062;3.754;2023-07-20T01:17:11;16.90;99.90
32698;DHT22;19087;51.062;3.754;2023-07-20T01:19:37;16.90;99.90
32698;DHT22;19087;51.062;3.754;2023-07-20T01:32:40;16.60;99.90
32698;DHT22;19087;51.062;3.754;2023-07-20T01:35:09;16.50;99.90
32698;DHT22;19087;51.062;3.754;2023-07-20T01:37:40;16.50;99.90
32698;DHT22;19087;51.062;3.754;2023-07-20T01:40:06;16.50;99.90
32698;DHT22;19087;51.062;3.754;2023-07-20T01:42:32;16.50;99.90
32698;DHT22;19087;51.062;3.754;2023-07-20T01:44:57;16.50;99.90
32698;DHT22;19087;51.062;3.754;2023-07-20T01:47:23;16.50;99.90
32698;DHT22;19087;51.062;3.754;2023-07-20T01:49:48;16.50;99.90
32698;DHT22;19087;51.062;3.754;2023-07-20T01:52:14;16.60;99.90
32698;DHT22;19087;51.062;3.754;2023-07-20T01:54:40;16.60;99.90
32698;DHT22;19087;51.062;3.754;2023-07-20T01:57:06;16.60;99.90
32698;DHT22;19087;51.062;3.754;2023-07-20T01:59:31;16.50;99.90
32698;DHT22;19087;51.062;3.754;2023-07-20T02:01:57;16.50;99.90
32698;DHT22;19087;51.062;3.754;2023-07-20T02:04:22;16.50;99.90
32698;DHT22;19087;51.062;3.754;2023-07-20T02:06:48;16.50;99.90
32698;DHT22;19087;51.062;3.754;2023-07-20T02:09:13;16.40;99.90
32698;DHT22;19087;51.062;3.754;2023-07-20T02:11:39;16.40;99.90
32698;DHT22;19087;51.062;3.754;2023-07-20T02:14:04;16.40;99.90
32698;DHT22;19087;51.062;3.754;2023-07-20T02:16:30;16.50;99.90
32698;DHT22;19087;51.062;3.754;2023-07-20T02:18:56;16.50;99.90
32698;DHT22;19087;51.062;3.754;2023-07-20T02:21:23;16.60;99.90
32698;DHT22;19087;51.062;3.754;2023-07-20T02:23:50;16.60;99.90
32698;DHT22;19087;51.062;3.754;2023-07-20T02:26:15;16.70;99.90
32698;DHT22;19087;51.062;3.754;2023-07-20T02:28:41;16.80;99.90
32698;DHT22;19087;51.062;3.754;2023-07-20T02:31:07;16.90;99.90
32698;DHT22;19087;51.062;3.754;2023-07-20T02:33:32;16.90;99.90
32698;DHT22;19087;51.062;3.754;2023-07-20T02:35:58;16.90;99.90
32698;DHT22;19087;51.062;3.754;2023-07-20T02:38:23;17.00;99.90
32698;DHT22;19087;51.062;3.754;2023-07-20T02:40:49;17.10;99.90
32698;DHT22;19087;51.062;3.754;2023-07-20T02:43:15;17.10;99.90
32698;DHT22;19087;51.062;3.754;2023-07-20T02:45:42;17.10;99.90
32698;DHT22;19087;51.062;3.754;2023-07-20T02:48:10;17.10;99.90
32698;DHT22;19087;51.062;3.754;2023-07-20T02:50:36;17.20;99.90
32698;DHT22;19087;51.062;3.754;2023-07-20T02:53:02;17.20;99.90
32698;DHT22;19087;51.062;3.754;2023-07-20T02:55:27;17.30;99.90
32698;DHT22;19087;51.062;3.754;2023-07-20T02:57:53;17.30;99.90
32698;DHT22;19087;51.062;3.754;2023-07-20T03:00:18;17.40;99.90
32698;DHT22;19087;51.062;3.754;2023-07-20T03:02:48;17.40;99.90
32698;DHT22;19087;51.062;3.754;2023-07-20T03:05:14;17.40;99.90
32698;DHT22;19087;51.062;3.754;2023-07-20T03:07:42;17.50;99.90
32698;DHT22;19087;51.062;3.754;2023-07-20T03:10:08;17.50;99.90
32698;DHT22;19087;51.062;3.754;2023-07-20T03:12:35;17.50;99.90
32698;DHT22;19087;51.062;3.754;2023-07-20T03:15:02;17.50;99.90
32698;DHT22;19087;51.062;3.754;2023-07-20T03:17:28;17.60;99.90
32698;DHT22;19087;51.062;3.754;2023-07-20T03:19:53;17.60;99.90
32698;DHT22;19087;51.062;3.754;2023-07-20T03:22:19;17.60;99.90
32698;DHT22;19087;51.062;3.754;2023-07-20T03:24:44;17.70;99.90
32698;DHT22;19087;51.062;3.754;2023-07-20T03:27:10;17.60;99.90
32698;DHT22;19087;51.062;3.754;2023-07-20T03:29:35;17.60;99.90
32698;DHT22;19087;51.062;3.754;2023-07-20T03:32:01;17.60;99.90
32698;DHT22;19087;51.062;3.754;2023-07-20T03:34:26;17.60;99.90
32698;DHT22;19087;51.062;3.754;2023-07-20T03:36:52;17.70;99.90
32698;DHT22;19087;51.062;3.754;2023-07-20T03:39:17;17.60;99.90
32698;DHT22;19087;51.062;3.754;2023-07-20T03:41:43;17.70;99.90
32698;DHT22;19087;51.062;3.754;2023-07-20T03:44:08;17.70;99.90
32698;DHT22;19087;51.062;3.754;2023-07-20T03:46:34;17.70;99.90
32698;DHT22;19087;51.062;3.754;2023-07-20T03:49:00;17.70;99.90
32698;DHT22;19087;51.062;3.754;2023-07-20T03:51:25;17.60;99.90
32698;DHT22;19087;51.062;3.754;2023-07-20T03:53:51;17.60;99.90
32698;DHT22;19087;51.062;3.754;2023-07-20T03:56:16;17.60;99.90
32698;DHT22;19087;51.062;3.754;2023-07-20T03:58:42;17.60;99.90
32698;DHT22;19087;51.062;3.754;2023-07-20T04:01:08;17.50;99.90
32698;DHT22;19087;51.062;3.754;2023-07-20T04:03:35;17.50;99.90
32698;DHT22;19087;51.062;3.754;2023-07-20T04:06:01;17.60;99.90
32698;DHT22;19087;51.062;3.754;2023-07-20T04:08:26;17.60;99.90
32698;DHT22;19087;51.062;3.754;2023-07-20T04:10:52;17.60;99.90
32698;DHT22;19087;51.062;3.754;2023-07-20T04:13:17;17.60;99.90
32698;DHT22;19087;51.062;3.754;2023-07-20T04:15:43;17.60;99.90
32698;DHT22;19087;51.062;3.754;2023-07-20T04:18:08;17.60;99.90
32698;DHT22;19087;51.062;3.754;2023-07-20T04:20:34;17.60;99.90
32698;DHT22;19087;51.062;3.754;2023-07-20T04:23:00;17.60;99.90
32698;DHT22;19087;51.062;3.754;2023-07-20T04:25:25;17.70;99.90
32698;DHT22;19087;51.062;3.754;2023-07-20T04:27:51;17.70;99.90
32698;DHT22;19087;51.062;3.754;2023-07-20T04:30:17;17.70;99.90
32698;DHT22;19087;51.062;3.754;2023-07-20T04:32:45;17.80;99.90
32698;DHT22;19087;51.062;3.754;2023-07-20T04:35:16;17.80;99.90
32698;DHT22;19087;51.062;3.754;2023-07-20T04:37:42;17.80;99.90
32698;DHT22;19087;51.062;3.754;2023-07-20T04:40:15;17.80;99.90
32698;DHT22;19087;51.062;3.754;2023-07-20T04:42:40;17.80;99.90
32698;DHT22;19087;51.062;3.754;2023-07-20T04:45:06;17.90;99.90
32698;DHT22;19087;51.062;3.754;2023-07-20T04:47:32;17.90;99.90
32698;DHT22;19087;51.062;3.754;2023-07-20T04:49:57;17.90;99.90
32698;DHT22;19087;51.062;3.754;2023-07-20T04:52:23;18.00;99.90
32698;DHT22;19087;51.062;3.754;2023-07-20T04:54:51;18.10;99.90
32698;DHT22;19087;51.062;3.754;2023-07-20T04:57:16;18.20;99.90
32698;DHT22;19087;51.062;3.754;2023-07-20T04:59:42;18.20;99.90
32698;DHT22;19087;51.062;3.754;2023-07-20T05:02:07;18.30;99.90
32698;DHT22;19087;51.062;3.754;2023-07-20T05:04:33;18.30;99.90
32698;DHT22;19087;51.062;3.754;2023-07-20T05:06:58;18.40;99.90
32698;DHT22;19087;51.062;3.754;2023-07-20T05:09:24;18.50;99.90
32698;DHT22;19087;51.062;3.754;2023-07-20T05:11:50;18.60;99.90
32698;DHT22;19087;51.062;3.754;2023-07-20T05:14:15;18.70;99.90
32698;DHT22;19087;51.062;3.754;2023-07-20T05:16:41;18.80;99.90
32698;DHT22;19087;51.062;3.754;2023-07-20T05:19:08;18.90;99.90
32698;DHT22;19087;51.062;3.754;2023-07-20T05:21:34;19.00;99.90
32698;DHT22;19087;51.062;3.754;2023-07-20T05:23:59;19.10;99.90
32698;DHT22;19087;51.062;3.754;2023-07-20T05:26:25;19.20;99.90
32698;DHT22;19087;51.062;3.754;2023-07-20T05:28:50;19.30;99.90
32698;DHT22;19087;51.062;3.754;2023-07-20T05:31:16;19.50;99.90
32698;DHT22;19087;51.062;3.754;2023-07-20T05:33:41;19.70;99.90
32698;DHT22;19087;51.062;3.754;2023-07-20T05:36:07;19.90;99.90
32698;DHT22;19087;51.062;3.754;2023-07-20T05:38:32;20.00;99.90
32698;DHT22;19087;51.062;3.754;2023-07-20T05:41:01;20.20;99.90
32698;DHT22;19087;51.062;3.754;2023-07-20T05:43:27;20.30;99.90
32698;DHT22;19087;51.062;3.754;2023-07-20T05:45:52;20.40;99.90
32698;DHT22;19087;51.062;3.754;2023-07-20T05:48:18;20.60;99.90
32698;DHT22;19087;51.062;3.754;2023-07-20T05:50:44;20.70;99.90
32698;DHT22;19087;51.062;3.754;2023-07-20T05:53:10;20.70;99.90
32698;DHT22;19087;51.062;3.754;2023-07-20T05:55:36;20.80;99.90
32698;DHT22;19087;51.062;3.754;2023-07-20T05:58:02;20.90;99.90
32698;DHT22;19087;51.062;3.754;2023-07-20T06:00:29;21.00;99.90
32698;DHT22;19087;51.062;3.754;2023-07-20T06:02:54;21.10;99.90
32698;DHT22;19087;51.062;3.754;2023-07-20T06:05:21;21.20;99.90
32698;DHT22;19087;51.062;3.754;2023-07-20T06:07:46;21.40;99.90
32698;DHT22;19087;51.062;3.754;2023-07-20T06:10:12;21.70;99.90
32698;DHT22;19087;51.062;3.754;2023-07-20T06:12:37;21.80;99.90
32698;DHT22;19087;51.062;3.754;2023-07-20T06:15:04;21.90;99.90
32698;DHT22;19087;51.062;3.754;2023-07-20T06:17:29;22.10;99.90
32698;DHT22;19087;51.062;3.754;2023-07-20T06:19:55;22.20;99.90
32698;DHT22;19087;51.062;3.754;2023-07-20T06:22:21;22.50;99.90
32698;DHT22;19087;51.062;3.754;2023-07-20T06:24:46;22.90;99.90
32698;DHT22;19087;51.062;3.754;2023-07-20T06:27:12;23.20;99.90
32698;DHT22;19087;51.062;3.754;2023-07-20T06:29:37;23.40;99.90
32698;DHT22;19087;51.062;3.754;2023-07-20T06:32:04;23.60;99.90
32698;DHT22;19087;51.062;3.754;2023-07-20T06:34:30;23.70;99.90
32698;DHT22;19087;51.062;3.754;2023-07-20T06:36:56;23.80;99.50
32698;DHT22;19087;51.062;3.754;2023-07-20T06:39:21;24.40;98.80
32698;DHT22;19087;51.062;3.754;2023-07-20T06:41:47;24.80;96.60
32698;DHT22;19087;51.062;3.754;2023-07-20T06:44:14;26.30;95.50
32698;DHT22;19087;51.062;3.754;2023-07-20T06:46:39;27.40;92.90
32698;DHT22;19087;51.062;3.754;2023-07-20T06:49:06;28.10;90.70
32698;DHT22;19087;51.062;3.754;2023-07-20T06:51:32;27.50;89.30
32698;DHT22;19087;51.062;3.754;2023-07-20T06:53:57;27.10;90.00
32698;DHT22;19087;51.062;3.754;2023-07-20T06:56:23;26.80;90.50
32698;DHT22;19087;51.062;3.754;2023-07-20T06:58:49;26.50;90.10
32698;DHT22;19087;51.062;3.754;2023-07-20T07:01:15;26.30;90.70
32698;DHT22;19087;51.062;3.754;2023-07-20T07:03:40;26.60;90.90
32698;DHT22;19087;51.062;3.754;2023-07-20T07:06:06;27.00;89.50
32698;DHT22;19087;51.062;3.754;2023-07-20T07:08:31;27.10;89.00
32698;DHT22;19087;51.062;3.754;2023-07-20T07:10:57;27.30;89.40
32698;DHT22;19087;51.062;3.754;2023-07-20T07:13:23;28.50;87.60
32698;DHT22;19087;51.062;3.754;2023-07-20T07:15:48;30.10;83.20
32698;DHT22;19087;51.062;3.754;2023-07-20T07:18:14;31.00;81.70
32698;DHT22;19087;51.062;3.754;2023-07-20T07:20:39;31.70;75.90
32698;DHT22;19087;51.062;3.754;2023-07-20T07:23:07;32.90;74.20
32698;DHT22;19087;51.062;3.754;2023-07-20T07:25:32;33.00;72.10
32698;DHT22;19087;51.062;3.754;2023-07-20T07:27:58;33.80;72.30
32698;DHT22;19087;51.062;3.754;2023-07-20T07:30:23;33.80;70.20
32698;DHT22;19087;51.062;3.754;2023-07-20T07:32:49;33.40;68.30
32698;DHT22;19087;51.062;3.754;2023-07-20T07:35:14;32.70;68.90
32698;DHT22;19087;51.062;3.754;2023-07-20T07:37:40;32.60;69.60
32698;DHT22;19087;51.062;3.754;2023-07-20T07:40:06;31.90;70.60
32698;DHT22;19087;51.062;3.754;2023-07-20T07:42:32;31.80;71.70
32698;DHT22;19087;51.062;3.754;2023-07-20T07:44:57;31.70;71.20
32698;DHT22;19087;51.062;3.754;2023-07-20T07:47:23;31.70;71.40
32698;DHT22;19087;51.062;3.754;2023-07-20T07:49:49;32.40;71.10
32698;DHT22;19087;51.062;3.754;2023-07-20T07:52:15;33.10;69.40
32698;DHT22;19087;51.062;3.754;2023-07-20T07:54:40;33.80;67.60
32698;DHT22;19087;51.062;3.754;2023-07-20T07:57:06;35.00;65.30
32698;DHT22;19087;51.062;3.754;2023-07-20T07:59:32;34.70;64.30
32698;DHT22;19087;51.062;3.754;2023-07-20T08:02:04;33.60;64.50
32698;DHT22;19087;51.062;3.754;2023-07-20T08:04:29;33.10;66.80
32698;DHT22;19087;51.062;3.754;2023-07-20T08:06:58;33.90;68.00
32698;DHT22;19087;51.062;3.754;2023-07-20T08:09:24;35.30;65.40
32698;DHT22;19087;51.062;3.754;2023-07-20T08:11:53;36.70;62.30
32698;DHT22;19087;51.062;3.754;2023-07-20T08:14:18;37.50;60.80
32698;DHT22;19087;51.062;3.754;2023-07-20T08:16:44;38.40;59.20
32698;DHT22;19087;51.062;3.754;2023-07-20T08:19:11;38.00;58.90
32698;DHT22;19087;51.062;3.754;2023-07-20T08:21:36;37.00;58.70
32698;DHT22;19087;51.062;3.754;2023-07-20T08:24:02;36.20;59.20
32698;DHT22;19087;51.062;3.754;2023-07-20T08:26:27;35.50;59.70
32698;DHT22;19087;51.062;3.754;2023-07-20T08:28:53;34.60;60.30
32698;DHT22;19087;51.062;3.754;2023-07-20T08:31:19;33.80;61.20
32698;DHT22;19087;51.062;3.754;2023-07-20T08:33:44;33.00;62.40
32698;DHT22;19087;51.062;3.754;2023-07-20T08:36:10;32.30;63.50
32698;DHT22;19087;51.062;3.754;2023-07-20T08:38:35;31.70;64.10
32698;DHT22;19087;51.062;3.754;2023-07-20T08:41:01;31.30;64.80
32698;DHT22;19087;51.062;3.754;2023-07-20T08:43:27;31.20;66.20
32698;DHT22;19087;51.062;3.754;2023-07-20T08:45:56;31.40;66.10
32698;DHT22;19087;51.062;3.754;2023-07-20T08:48:22;31.30;66.10
32698;DHT22;19087;51.062;3.754;2023-07-20T08:50:54;31.40;66.80
32698;DHT22;19087;51.062;3.754;2023-07-20T08:53:27;31.40;66.20
32698;DHT22;19087;51.062;3.754;2023-07-20T08:55:54;30.90;66.70
32698;DHT22;19087;51.062;3.754;2023-07-20T08:58:21;31.10;67.60
32698;DHT22;19087;51.062;3.754;2023-07-20T09:00:52;31.00;66.60
32698;DHT22;19087;51.062;3.754;2023-07-20T09:03:18;30.80;66.50
32698;DHT22;19087;51.062;3.754;2023-07-20T09:05:44;30.30;66.90
32698;DHT22;19087;51.062;3.754;2023-07-20T09:08:10;30.30;67.70
32698;DHT22;19087;51.062;3.754;2023-07-20T09:10:36;30.30;67.20
32698;DHT22;19087;51.062;3.754;2023-07-20T09:13:01;30.50;66.80
32698;DHT22;19087;51.062;3.754;2023-07-20T09:15:28;30.70;66.50
32698;DHT22;19087;51.062;3.754;2023-07-20T09:17:54;30.80;66.10
32698;DHT22;19087;51.062;3.754;2023-07-20T09:20:21;30.90;66.00
32698;DHT22;19087;51.062;3.754;2023-07-20T09:22:47;30.70;65.50
32698;DHT22;19087;51.062;3.754;2023-07-20T09:25:16;30.60;65.90
32698;DHT22;19087;51.062;3.754;2023-07-20T09:27:42;30.70;66.20
32698;DHT22;19087;51.062;3.754;2023-07-20T09:30:08;30.60;66.70
32698;DHT22;19087;51.062;3.754;2023-07-20T09:35:18;30.10;66.70
32698;DHT22;19087;51.062;3.754;2023-07-20T09:37:49;30.00;67.20
32698;DHT22;19087;51.062;3.754;2023-07-20T09:40:18;30.20;67.40
32698;DHT22;19087;51.062;3.754;2023-07-20T09:42:44;30.40;67.90
32698;DHT22;19087;51.062;3.754;2023-07-20T09:45:11;30.60;67.90
32698;DHT22;19087;51.062;3.754;2023-07-20T09:47:40;30.20;67.40
32698;DHT22;19087;51.062;3.754;2023-07-20T09:50:14;30.10;67.30
32698;DHT22;19087;51.062;3.754;2023-07-20T09:52:43;30.10;67.20
32698;DHT22;19087;51.062;3.754;2023-07-20T09:55:09;30.00;66.70
32698;DHT22;19087;51.062;3.754;2023-07-20T09:57:36;29.90;67.00
32698;DHT22;19087;51.062;3.754;2023-07-20T10:00:04;29.80;66.20
32698;DHT22;19087;51.062;3.754;2023-07-20T10:02:35;29.60;67.50
32698;DHT22;19087;51.062;3.754;2023-07-20T10:05:02;29.60;67.90
32698;DHT22;19087;51.062;3.754;2023-07-20T10:07:29;29.70;68.30
32698;DHT22;19087;51.062;3.754;2023-07-20T10:09:55;29.80;68.10
32698;DHT22;19087;51.062;3.754;2023-07-20T10:12:22;30.10;66.70
32698;DHT22;19087;51.062;3.754;2023-07-20T10:14:52;30.10;66.70
32698;DHT22;19087;51.062;3.754;2023-07-20T10:17:19;30.20;66.30
32698;DHT22;19087;51.062;3.754;2023-07-20T10:19:49;30.40;66.60
32698;DHT22;19087;51.062;3.754;2023-07-20T10:22:26;30.60;66.70
32698;DHT22;19087;51.062;3.754;2023-07-20T10:24:51;30.70;65.60
32698;DHT22;19087;51.062;3.754;2023-07-20T10:27:22;30.50;65.30
32698;DHT22;19087;51.062;3.754;2023-07-20T10:29:47;30.40;65.10
32698;DHT22;19087;51.062;3.754;2023-07-20T10:32:13;30.00;65.80
32698;DHT22;19087;51.062;3.754;2023-07-20T10:34:39;29.80;67.00
32698;DHT22;19087;51.062;3.754;2023-07-20T10:37:04;29.80;67.80
32698;DHT22;19087;51.062;3.754;2023-07-20T10:39:33;29.60;66.30
32698;DHT22;19087;51.062;3.754;2023-07-20T10:42:00;29.50;67.10
32698;DHT22;19087;51.062;3.754;2023-07-20T10:44:27;29.60;66.30
32698;DHT22;19087;51.062;3.754;2023-07-20T10:46:58;29.70;66.50
32698;DHT22;19087;51.062;3.754;2023-07-20T10:49:25;29.90;66.10
32698;DHT22;19087;51.062;3.754;2023-07-20T10:51:58;29.90;64.20
32698;DHT22;19087;51.062;3.754;2023-07-20T10:56:55;29.90;62.10
32698;DHT22;19087;51.062;3.754;2023-07-20T11:01:50;30.00;62.40
32698;DHT22;19087;51.062;3.754;2023-07-20T11:04:37;30.20;61.90
32698;DHT22;19087;51.062;3.754;2023-07-20T11:07:03;30.30;62.70
32698;DHT22;19087;51.062;3.754;2023-07-20T11:09:33;30.40;61.90
32698;DHT22;19087;51.062;3.754;2023-07-20T11:12:12;30.50;61.10
32698;DHT22;19087;51.062;3.754;2023-07-20T11:14:42;30.60;60.50
32698;DHT22;19087;51.062;3.754;2023-07-20T11:17:11;30.70;61.50
32698;DHT22;19087;51.062;3.754;2023-07-20T11:19:38;30.80;61.50
32698;DHT22;19087;51.062;3.754;2023-07-20T11:22:04;30.90;61.10
32698;DHT22;19087;51.062;3.754;2023-07-20T11:24:32;30.60;60.70
32698;DHT22;19087;51.062;3.754;2023-07-20T11:26:58;30.50;61.00
32698;DHT22;19087;51.062;3.754;2023-07-20T11:29:24;30.30;61.40
32698;DHT22;19087;51.062;3.754;2023-07-20T11:31:54;30.20;61.80
32698;DHT22;19087;51.062;3.754;2023-07-20T11:34:20;30.20;61.80
32698;DHT22;19087;51.062;3.754;2023-07-20T11:36:47;30.00;62.00
32698;DHT22;19087;51.062;3.754;2023-07-20T11:39:15;29.90;62.30
32698;DHT22;19087;51.062;3.754;2023-07-20T11:41:45;29.80;62.90
32698;DHT22;19087;51.062;3.754;2023-07-20T11:44:11;29.60;63.00
32698;DHT22;19087;51.062;3.754;2023-07-20T11:46:42;29.60;63.90
32698;DHT22;19087;51.062;3.754;2023-07-20T11:49:07;29.60;64.10
32698;DHT22;19087;51.062;3.754;2023-07-20T11:51:34;29.50;64.10
32698;DHT22;19087;51.062;3.754;2023-07-20T11:54:00;29.20;64.20
32698;DHT22;19087;51.062;3.754;2023-07-20T11:56:26;28.60;65.50
32698;DHT22;19087;51.062;3.754;2023-07-20T11:58:55;28.30;66.60
32698;DHT22;19087;51.062;3.754;2023-07-20T12:01:23;28.10;66.60
32698;DHT22;19087;51.062;3.754;2023-07-20T12:03:48;28.10;67.00
32698;DHT22;19087;51.062;3.754;2023-07-20T12:06:15;28.10;67.10
32698;DHT22;19087;51.062;3.754;2023-07-20T12:08:44;28.10;67.20
32698;DHT22;19087;51.062;3.754;2023-07-20T12:11:10;28.00;67.40
32698;DHT22;19087;51.062;3.754;2023-07-20T12:13:39;27.60;68.20
32698;DHT22;19087;51.062;3.754;2023-07-20T12:16:09;27.40;69.00
32698;DHT22;19087;51.062;3.754;2023-07-20T12:18:35;27.30;69.40
32698;DHT22;19087;51.062;3.754;2023-07-20T12:21:01;27.50;69.90
32698;DHT22;19087;51.062;3.754;2023-07-20T12:23:34;27.80;70.60
32698;DHT22;19087;51.062;3.754;2023-07-20T12:26:01;28.20;69.90
32698;DHT22;19087;51.062;3.754;2023-07-20T12:28:27;28.50;69.10
32698;DHT22;19087;51.062;3.754;2023-07-20T12:30:53;28.10;70.90
32698;DHT22;19087;51.062;3.754;2023-07-20T12:33:22;27.70;72.50
32698;DHT22;19087;51.062;3.754;2023-07-20T12:35:48;27.60;74.00
32698;DHT22;19087;51.062;3.754;2023-07-20T12:38:15;27.30;74.20
32698;DHT22;19087;51.062;3.754;2023-07-20T12:40:41;27.20;74.90
32698;DHT22;19087;51.062;3.754;2023-07-20T12:43:12;27.30;74.30
32698;DHT22;19087;51.062;3.754;2023-07-20T12:45:42;27.30;74.20
32698;DHT22;19087;51.062;3.754;2023-07-20T12:48:17;27.40;73.80
32698;DHT22;19087;51.062;3.754;2023-07-20T12:50:43;27.70;73.10
32698;DHT22;19087;51.062;3.754;2023-07-20T12:53:08;27.60;73.40
32698;DHT22;19087;51.062;3.754;2023-07-20T12:55:34;27.50;72.80
32698;DHT22;19087;51.062;3.754;2023-07-20T12:58:01;27.40;73.30
32698;DHT22;19087;51.062;3.754;2023-07-20T13:00:27;27.60;72.70
32698;DHT22;19087;51.062;3.754;2023-07-20T13:02:53;27.70;70.40
32698;DHT22;19087;51.062;3.754;2023-07-20T13:05:18;27.80;69.50
32698;DHT22;19087;51.062;3.754;2023-07-20T13:07:44;28.20;69.50
32698;DHT22;19087;51.062;3.754;2023-07-20T13:10:11;28.30;69.70
32698;DHT22;19087;51.062;3.754;2023-07-20T13:12:38;27.70;69.70
32698;DHT22;19087;51.062;3.754;2023-07-20T13:15:04;27.50;70.80
32698;DHT22;19087;51.062;3.754;2023-07-20T13:17:36;27.70;70.10
32698;DHT22;19087;51.062;3.754;2023-07-20T13:20:03;28.10;69.00
32698;DHT22;19087;51.062;3.754;2023-07-20T13:22:30;28.30;69.70
32698;DHT22;19087;51.062;3.754;2023-07-20T13:24:55;28.50;69.30
32698;DHT22;19087;51.062;3.754;2023-07-20T13:27:22;28.30;68.40
32698;DHT22;19087;51.062;3.754;2023-07-20T13:29:50;28.20;69.40
32698;DHT22;19087;51.062;3.754;2023-07-20T13:32:19;28.10;69.00
32698;DHT22;19087;51.062;3.754;2023-07-20T13:34:44;28.00;68.80
32698;DHT22;19087;51.062;3.754;2023-07-20T13:37:10;27.60;69.00
32698;DHT22;19087;51.062;3.754;2023-07-20T13:39:36;27.60;69.70
32698;DHT22;19087;51.062;3.754;2023-07-20T13:42:02;27.70;69.80
32698;DHT22;19087;51.062;3.754;2023-07-20T13:44:33;27.70;70.10
32698;DHT22;19087;51.062;3.754;2023-07-20T13:46:59;27.50;70.00
32698;DHT22;19087;51.062;3.754;2023-07-20T13:49:25;27.30;70.10
32698;DHT22;19087;51.062;3.754;2023-07-20T13:51:50;27.00;70.00
32698;DHT22;19087;51.062;3.754;2023-07-20T13:54:18;26.90;70.50
32698;DHT22;19087;51.062;3.754;2023-07-20T13:56:45;26.80;70.70
32698;DHT22;19087;51.062;3.754;2023-07-20T13:59:11;26.90;71.10
32698;DHT22;19087;51.062;3.754;2023-07-20T14:01:37;26.80;71.30
32698;DHT22;19087;51.062;3.754;2023-07-20T14:04:03;26.60;72.90
32698;DHT22;19087;51.062;3.754;2023-07-20T14:06:33;26.40;74.60
32698;DHT22;19087;51.062;3.754;2023-07-20T14:08:59;25.90;79.80
32698;DHT22;19087;51.062;3.754;2023-07-20T14:11:25;25.00;82.60
32698;DHT22;19087;51.062;3.754;2023-07-20T14:13:51;24.30;85.90
32698;DHT22;19087;51.062;3.754;2023-07-20T14:16:18;23.80;88.70
32698;DHT22;19087;51.062;3.754;2023-07-20T14:18:43;23.30;89.70
32698;DHT22;19087;51.062;3.754;2023-07-20T14:21:16;23.00;90.30
32698;DHT22;19087;51.062;3.754;2023-07-20T14:23:41;22.80;91.10
32698;DHT22;19087;51.062;3.754;2023-07-20T14:26:07;22.80;91.70
32698;DHT22;19087;51.062;3.754;2023-07-20T14:28:35;22.90;92.10
32698;DHT22;19087;51.062;3.754;2023-07-20T14:31:01;22.80;92.60
32698;DHT22;19087;51.062;3.754;2023-07-20T14:33:26;22.80;92.80
32698;DHT22;19087;51.062;3.754;2023-07-20T14:35:52;23.00;92.90
32698;DHT22;19087;51.062;3.754;2023-07-20T14:38:17;23.10;93.30
32698;DHT22;19087;51.062;3.754;2023-07-20T14:40:43;23.20;93.70
32698;DHT22;19087;51.062;3.754;2023-07-20T14:43:10;23.10;94.30
32698;DHT22;19087;51.062;3.754;2023-07-20T14:45:35;22.90;94.70
32698;DHT22;19087;51.062;3.754;2023-07-20T14:48:03;23.00;95.20
32698;DHT22;19087;51.062;3.754;2023-07-20T14:50:29;23.20;95.60
32698;DHT22;19087;51.062;3.754;2023-07-20T14:52:54;23.30;95.50
32698;DHT22;19087;51.062;3.754;2023-07-20T14:55:20;23.30;95.50
32698;DHT22;19087;51.062;3.754;2023-07-20T14:57:46;23.40;95.50
32698;DHT22;19087;51.062;3.754;2023-07-20T15:00:13;23.40;95.60
32698;DHT22;19087;51.062;3.754;2023-07-20T15:02:40;23.30;95.20
32698;DHT22;19087;51.062;3.754;2023-07-20T15:05:09;23.40;95.40
32698;DHT22;19087;51.062;3.754;2023-07-20T15:07:35;23.20;95.40
32698;DHT22;19087;51.062;3.754;2023-07-20T15:10:01;23.10;95.40
32698;DHT22;19087;51.062;3.754;2023-07-20T15:12:28;22.90;96.10
32698;DHT22;19087;51.062;3.754;2023-07-20T15:15:07;22.80;96.90
32698;DHT22;19087;51.062;3.754;2023-07-20T15:17:42;22.60;97.80
32698;DHT22;19087;51.062;3.754;2023-07-20T15:20:22;22.40;99.00
32698;DHT22;19087;51.062;3.754;2023-07-20T15:22:49;22.20;99.90
32698;DHT22;19087;51.062;3.754;2023-07-20T15:25:16;21.90;99.90
32698;DHT22;19087;51.062;3.754;2023-07-20T15:27:42;21.70;99.90
32698;DHT22;19087;51.062;3.754;2023-07-20T15:30:11;21.60;99.90
32698;DHT22;19087;51.062;3.754;2023-07-20T15:32:37;21.70;99.90
32698;DHT22;19087;51.062;3.754;2023-07-20T15:35:02;21.60;99.90
32698;DHT22;19087;51.062;3.754;2023-07-20T15:37:29;21.50;99.90
32698;DHT22;19087;51.062;3.754;2023-07-20T15:39:55;21.60;99.90
32698;DHT22;19087;51.062;3.754;2023-07-20T15:42:20;21.70;99.90
32698;DHT22;19087;51.062;3.754;2023-07-20T15:44:47;21.70;99.90
32698;DHT22;19087;51.062;3.754;2023-07-20T15:47:12;22.00;99.90